Time;durP1;ratioP1;P1;durP2;ratioP2;P2;SDS_P1;SDS_P2;PMS_P1;PMS_P2;Temp;Humidity;BMP_temperature;BMP_pressure;BME280_temperature;BME280_humidity;BME280_pressure;Samples;Min_cycle;Max_cycle;Signal;HPM_P1;HPM_P2
2022/05/28 00:00:29;;;;;;;9.00;2.05;;;13.90;99.90;;;;;;5031523;28;20037;-74
2022/05/28 00:02:55;;;;;;;10.98;2.72;;;13.90;99.90;;;;;;5031440;28;20196;-74
2022/05/28 00:05:20;;;;;;;14.13;2.38;;;13.90;99.90;;;;;;5031933;28;20018;-74
2022/05/28 00:07:46;;;;;;;19.45;2.90;;;13.90;99.90;;;;;;5031356;28;20028;-75
2022/05/28 00:10:16;;;;;;;14.07;2.40;;;13.90;99.90;;;;;;5031285;28;20057;-75
2022/05/28 00:12:42;;;;;;;15.27;2.67;;;13.90;99.90;;;;;;5031443;28;20080;-75
2022/05/28 00:15:09;;;;;;;18.33;2.20;;;13.90;99.90;;;;;;5031371;28;20876;-75
2022/05/28 00:17:36;;;;;;;12.93;2.83;;;13.90;99.90;;;;;;5031169;28;20021;-75
2022/05/28 00:20:02;;;;;;;16.23;3.03;;;13.90;99.90;;;;;;5031053;28;20022;-75
2022/05/28 00:22:28;;;;;;;11.73;2.13;;;13.90;99.90;;;;;;5031252;28;20029;-75
2022/05/28 00:24:57;;;;;;;16.10;2.22;;;13.90;99.90;;;;;;5031495;28;20036;-74
2022/05/28 00:27:23;;;;;;;12.48;2.17;;;13.90;99.90;;;;;;5030909;28;20358;-74
2022/05/28 00:29:48;;;;;;;15.75;2.05;;;13.90;99.90;;;;;;5031476;28;20032;-74
2022/05/28 00:32:14;;;;;;;13.45;2.42;;;13.90;99.90;;;;;;5030761;28;20460;-76
2022/05/28 00:34:40;;;;;;;14.35;2.42;;;13.90;99.90;;;;;;5031023;28;20101;-74
2022/05/28 00:37:06;;;;;;;18.55;2.50;;;13.80;99.90;;;;;;5031211;28;20021;-74
2022/05/28 00:39:32;;;;;;;14.00;2.20;;;13.90;99.90;;;;;;5031113;28;20044;-74
2022/05/28 00:41:58;;;;;;;16.05;2.67;;;13.80;99.90;;;;;;5029438;28;20033;-74
2022/05/28 00:44:24;;;;;;;15.90;2.30;;;13.80;99.90;;;;;;5029471;28;20087;-74
2022/05/28 00:46:51;;;;;;;17.30;2.22;;;13.80;99.90;;;;;;5030760;28;20075;-76
2022/05/28 00:49:23;;;;;;;14.63;2.17;;;13.80;99.90;;;;;;5030825;28;20021;-74
2022/05/28 00:51:52;;;;;;;13.30;2.00;;;13.80;99.90;;;;;;5030683;28;20478;-75
2022/05/28 00:54:18;;;;;;;20.92;2.60;;;13.80;99.90;;;;;;5030838;28;20123;-74
2022/05/28 00:56:43;;;;;;;21.50;2.65;;;13.70;99.90;;;;;;5031390;28;20369;-74
2022/05/28 00:59:09;;;;;;;17.77;2.75;;;13.70;99.90;;;;;;5030637;28;20080;-74
2022/05/28 01:01:41;;;;;;;18.70;3.22;;;13.70;99.90;;;;;;5030552;28;20029;-74
2022/05/28 01:04:15;;;;;;;14.50;2.30;;;13.70;99.90;;;;;;5030783;28;20112;-75
2022/05/28 01:07:15;;;;;;;15.25;2.83;;;13.70;99.90;;;;;;5030715;28;20176;-75
2022/05/28 01:09:47;;;;;;;12.82;2.45;;;13.70;99.90;;;;;;5030620;28;20049;-74
2022/05/28 01:12:20;;;;;;;20.73;3.05;;;13.70;99.90;;;;;;5030797;28;20057;-74
2022/05/28 01:14:45;;;;;;;11.52;2.30;;;13.70;99.90;;;;;;5030967;28;20022;-75
2022/05/28 01:17:21;;;;;;;21.98;3.08;;;13.60;99.90;;;;;;5030531;28;20030;-75
2022/05/28 01:19:50;;;;;;;15.68;2.40;;;13.60;99.90;;;;;;5030875;28;20022;-74
2022/05/28 01:22:42;;;;;;;19.95;2.58;;;13.60;99.90;;;;;;5029088;28;20446;-74
2022/05/28 01:25:21;;;;;;;22.30;3.08;;;13.60;99.90;;;;;;5027520;28;20132;-74
2022/05/28 01:27:51;;;;;;;28.52;3.55;;;13.50;99.90;;;;;;5030370;28;20083;-75
2022/05/28 01:30:18;;;;;;;15.40;2.17;;;13.50;99.90;;;;;;5030750;28;20083;-74
2022/05/28 01:32:49;;;;;;;17.67;2.83;;;13.50;99.90;;;;;;5030371;28;20666;-74
2022/05/28 01:35:17;;;;;;;21.25;2.95;;;13.50;99.90;;;;;;5030618;28;20104;-74
2022/05/28 01:37:45;;;;;;;13.05;2.53;;;13.50;99.90;;;;;;5030743;28;20064;-75
2022/05/28 01:40:11;;;;;;;21.95;3.40;;;13.40;99.90;;;;;;5034425;28;20036;-74
2022/05/28 01:42:42;;;;;;;23.80;2.83;;;13.40;99.90;;;;;;5034458;28;20072;-74
2022/05/28 01:45:10;;;;;;;15.35;2.55;;;13.40;99.90;;;;;;5035248;28;20372;-73
2022/05/28 01:47:36;;;;;;;16.13;2.65;;;13.40;99.90;;;;;;5035001;28;20021;-74
2022/05/28 01:50:05;;;;;;;18.63;2.60;;;13.40;99.90;;;;;;5034897;28;20028;-74
2022/05/28 01:52:33;;;;;;;22.85;2.72;;;13.30;99.90;;;;;;5034177;28;20108;-75
2022/05/28 01:55:00;;;;;;;24.05;3.30;;;13.30;99.90;;;;;;5035681;28;20033;-74
2022/05/28 01:57:25;;;;;;;21.38;2.60;;;13.30;99.90;;;;;;5037120;28;20024;-74
2022/05/28 01:59:51;;;;;;;20.00;2.42;;;13.30;99.90;;;;;;5037262;28;20026;-73
2022/05/28 02:02:17;;;;;;;17.15;2.90;;;13.30;99.90;;;;;;5037165;28;20393;-75
2022/05/28 02:04:46;;;;;;;16.65;2.38;;;13.20;99.90;;;;;;5037698;28;20120;-74
2022/05/28 02:07:13;;;;;;;22.98;2.85;;;13.20;99.90;;;;;;5035476;28;20039;-74
2022/05/28 02:09:51;;;;;;;19.88;2.80;;;13.20;99.90;;;;;;5034102;28;20029;-74
2022/05/28 02:12:37;;;;;;;24.38;3.08;;;13.20;99.90;;;;;;5032820;28;20481;-75
2022/05/28 02:15:12;;;;;;;16.25;2.97;;;13.20;99.90;;;;;;5033742;28;20136;-74
2022/05/28 02:17:52;;;;;;;20.92;2.78;;;13.10;99.90;;;;;;5033854;28;20074;-74
2022/05/28 02:20:36;;;;;;;20.08;2.58;;;13.10;99.90;;;;;;5033604;28;20080;-74
2022/05/28 02:23:16;;;;;;;21.83;2.70;;;13.10;99.90;;;;;;5033494;28;20109;-74
2022/05/28 02:25:54;;;;;;;22.50;3.33;;;13.10;99.90;;;;;;5023493;28;20029;-74
2022/05/28 02:28:23;;;;;;;15.88;2.50;;;13.10;99.90;;;;;;5033492;28;20029;-74
2022/05/28 02:30:51;;;;;;;20.33;3.05;;;13.00;99.90;;;;;;5033508;28;20030;-75
2022/05/28 02:33:17;;;;;;;16.90;2.60;;;13.00;99.90;;;;;;5033410;28;20041;-75
2022/05/28 02:35:44;;;;;;;12.75;1.92;;;13.00;99.90;;;;;;5019775;28;20029;-75
2022/05/28 02:38:11;;;;;;;19.70;2.80;;;13.00;99.90;;;;;;5022186;28;20069;-74
2022/05/28 02:40:36;;;;;;;17.13;2.70;;;13.00;99.90;;;;;;5031616;28;20505;-73
2022/05/28 02:43:02;;;;;;;18.60;2.33;;;13.00;99.90;;;;;;5033232;28;20033;-74
2022/05/28 02:45:28;;;;;;;18.85;2.22;;;13.00;99.90;;;;;;5034169;28;20036;-74
2022/05/28 02:47:54;;;;;;;16.88;2.78;;;12.90;99.90;;;;;;5033524;28;20031;-75
2022/05/28 02:50:20;;;;;;;13.07;2.00;;;12.90;99.90;;;;;;5033103;28;20024;-76
2022/05/28 02:52:45;;;;;;;19.65;2.42;;;12.90;99.90;;;;;;5027328;28;20474;-74
2022/05/28 02:55:11;;;;;;;17.25;2.67;;;12.90;99.90;;;;;;5025082;28;20021;-73
2022/05/28 02:57:37;;;;;;;14.10;2.10;;;12.90;99.90;;;;;;5019122;28;20469;-74
2022/05/28 03:00:07;;;;;;;13.75;2.22;;;12.80;99.90;;;;;;5033216;28;20083;-75
2022/05/28 03:02:33;;;;;;;11.73;1.98;;;12.90;99.90;;;;;;5032392;28;20385;-74
2022/05/28 03:04:59;;;;;;;12.90;1.83;;;12.80;99.90;;;;;;5024540;28;20049;-74
2022/05/28 03:07:24;;;;;;;14.68;1.90;;;12.90;99.90;;;;;;5027084;28;20424;-74
2022/05/28 03:09:50;;;;;;;14.95;1.95;;;12.80;99.90;;;;;;5026305;28;20026;-74
2022/05/28 03:12:16;;;;;;;16.05;1.88;;;12.80;99.90;;;;;;5024805;28;20040;-74
2022/05/28 03:14:42;;;;;;;11.00;2.03;;;12.80;99.90;;;;;;5032691;28;20025;-74
2022/05/28 03:17:08;;;;;;;11.75;2.03;;;12.80;99.90;;;;;;5032475;28;20025;-74
2022/05/28 03:19:33;;;;;;;10.93;1.60;;;12.80;99.90;;;;;;5032391;28;20021;-74
2022/05/28 03:21:59;;;;;;;12.75;1.88;;;12.80;99.90;;;;;;5032357;28;20033;-74
2022/05/28 03:24:25;;;;;;;10.77;2.22;;;12.70;99.90;;;;;;5032153;28;20465;-75
2022/05/28 03:26:52;;;;;;;13.25;1.63;;;12.70;99.90;;;;;;5032225;28;20435;-75
2022/05/28 03:29:18;;;;;;;9.80;1.88;;;12.70;99.90;;;;;;5031221;28;20022;-75
2022/05/28 03:31:43;;;;;;;11.73;1.63;;;12.70;99.90;;;;;;5031553;28;20150;-74
2022/05/28 03:34:09;;;;;;;14.13;1.63;;;12.70;99.90;;;;;;5032223;28;20481;-74
2022/05/28 03:36:34;;;;;;;13.15;1.40;;;12.60;99.90;;;;;;5031888;28;20026;-74
2022/05/28 03:39:02;;;;;;;11.50;2.10;;;12.60;99.90;;;;;;5032052;28;20029;-74
2022/05/28 03:41:28;;;;;;;8.13;1.30;;;12.60;99.90;;;;;;5030845;28;20576;-74
2022/05/28 03:43:54;;;;;;;11.80;1.33;;;12.60;99.90;;;;;;5031741;28;20567;-74
2022/05/28 03:46:24;;;;;;;9.82;1.90;;;12.50;99.90;;;;;;5020164;28;20028;-74
2022/05/28 03:48:51;;;;;;;12.30;2.00;;;12.60;99.90;;;;;;5030007;28;20028;-73
2022/05/28 03:51:17;;;;;;;13.65;1.90;;;12.50;99.90;;;;;;5031762;28;20021;-74
2022/05/28 03:53:42;;;;;;;12.25;1.70;;;12.50;99.90;;;;;;5016530;28;20489;-74
2022/05/28 03:56:08;;;;;;;13.18;1.42;;;12.50;99.90;;;;;;5023454;28;20037;-75
2022/05/28 03:58:34;;;;;;;8.75;1.45;;;12.50;99.90;;;;;;5025996;28;20061;-74
2022/05/28 04:00:59;;;;;;;11.88;1.48;;;12.50;99.90;;;;;;5017179;28;20057;-74
2022/05/28 04:03:25;;;;;;;11.45;1.42;;;12.50;99.90;;;;;;5019515;28;20034;-75
2022/05/28 04:05:50;;;;;;;11.90;1.20;;;12.40;99.90;;;;;;5029579;28;20030;-74
2022/05/28 04:08:17;;;;;;;10.55;1.55;;;12.40;99.90;;;;;;5031477;28;20025;-74
2022/05/28 04:10:42;;;;;;;7.95;1.13;;;12.40;99.90;;;;;;5031250;28;20021;-75
2022/05/28 04:13:08;;;;;;;11.18;1.45;;;12.40;99.90;;;;;;5031245;28;20148;-74
2022/05/28 04:15:33;;;;;;;8.88;1.77;;;12.40;99.90;;;;;;5031117;28;20549;-75
2022/05/28 04:17:59;;;;;;;11.93;1.63;;;12.40;99.90;;;;;;5031302;28;20021;-73
2022/05/28 04:20:25;;;;;;;12.45;1.65;;;12.40;99.90;;;;;;5031114;28;20017;-74
2022/05/28 04:22:51;;;;;;;8.85;1.20;;;12.40;99.90;;;;;;5031075;28;20416;-75
2022/05/28 04:25:17;;;;;;;13.13;1.90;;;12.40;99.90;;;;;;5031168;28;20100;-75
2022/05/28 04:27:42;;;;;;;14.05;1.45;;;12.40;99.90;;;;;;5031096;28;20096;-75
2022/05/28 04:30:10;;;;;;;14.63;1.73;;;12.40;99.90;;;;;;5031223;28;20128;-74
2022/05/28 04:32:36;;;;;;;10.13;1.38;;;12.40;99.90;;;;;;5030755;28;20056;-76
2022/05/28 04:35:02;;;;;;;10.25;1.85;;;12.40;99.90;;;;;;5028604;28;20022;-74
2022/05/28 04:37:27;;;;;;;7.30;1.33;;;12.40;99.90;;;;;;5019616;28;20030;-75
2022/05/28 04:39:53;;;;;;;8.55;1.20;;;12.40;99.90;;;;;;5030403;28;20056;-76
2022/05/28 04:42:18;;;;;;;12.15;1.40;;;12.40;99.90;;;;;;5017360;28;20555;-75
2022/05/28 04:44:44;;;;;;;10.25;1.50;;;12.40;99.90;;;;;;5031071;28;20501;-75
2022/05/28 04:47:09;;;;;;;8.27;1.20;;;12.50;99.90;;;;;;5029603;28;20017;-75
2022/05/28 04:49:35;;;;;;;9.20;1.10;;;12.50;99.90;;;;;;5031194;28;20461;-76
2022/05/28 04:52:00;;;;;;;11.25;1.70;;;12.50;99.90;;;;;;5016757;28;20040;-75
2022/05/28 04:54:26;;;;;;;9.60;1.40;;;12.50;99.90;;;;;;5030856;28;20032;-75
2022/05/28 04:56:52;;;;;;;9.10;1.40;;;12.50;99.90;;;;;;5030439;28;20473;-76
2022/05/28 04:59:18;;;;;;;8.38;1.17;;;12.50;99.90;;;;;;5030565;28;20020;-75
2022/05/28 05:01:44;;;;;;;10.68;1.52;;;12.50;99.90;;;;;;5030547;28;20116;-76
2022/05/28 05:04:11;;;;;;;10.18;1.40;;;12.50;99.90;;;;;;5030756;28;20366;-75
2022/05/28 05:06:36;;;;;;;9.00;1.48;;;12.50;99.90;;;;;;5030558;28;20022;-74
2022/05/28 05:09:02;;;;;;;9.48;1.50;;;12.60;99.90;;;;;;5015301;28;20404;-76
2022/05/28 05:11:28;;;;;;;11.32;1.50;;;12.60;99.90;;;;;;5029534;28;20060;-74
2022/05/28 05:13:53;;;;;;;11.52;1.40;;;12.60;99.90;;;;;;5026604;28;20026;-74
2022/05/28 05:16:19;;;;;;;11.68;1.40;;;12.60;99.90;;;;;;5031082;28;20531;-74
2022/05/28 05:18:45;;;;;;;7.70;1.13;;;12.60;99.90;;;;;;5025033;28;20018;-74
2022/05/28 05:21:13;;;;;;;9.43;1.48;;;12.60;99.90;;;;;;5028788;28;20509;-74
2022/05/28 05:23:43;;;;;;;8.82;1.65;;;12.70;99.90;;;;;;5031527;28;20061;-75
2022/05/28 05:26:13;;;;;;;12.57;1.50;;;12.60;99.90;;;;;;5019270;28;20370;-75
2022/05/28 05:28:39;;;;;;;13.20;1.60;;;12.60;99.90;;;;;;5023276;28;20038;-75
2022/05/28 05:31:05;;;;;;;8.85;1.45;;;12.70;99.90;;;;;;5023332;28;20033;-75
2022/05/28 05:33:30;;;;;;;9.52;1.13;;;12.70;99.90;;;;;;5022935;28;20061;-75
2022/05/28 05:35:56;;;;;;;13.68;1.40;;;12.60;99.90;;;;;;5015228;28;20033;-75
2022/05/28 05:38:21;;;;;;;6.65;1.45;;;12.70;99.90;;;;;;5018991;28;20489;-75
2022/05/28 05:40:51;;;;;;;11.60;1.83;;;12.70;99.90;;;;;;5030560;28;20037;-74
2022/05/28 05:43:16;;;;;;;15.05;1.65;;;12.70;99.90;;;;;;5029741;28;20120;-75
2022/05/28 05:45:42;;;;;;;8.05;1.48;;;12.70;99.90;;;;;;5014890;28;20105;-75
2022/05/28 05:48:08;;;;;;;7.60;1.30;;;12.70;99.90;;;;;;5022496;28;20037;-74
2022/05/28 05:50:33;;;;;;;12.70;1.63;;;12.70;99.90;;;;;;5029542;28;20061;-75
2022/05/28 05:52:59;;;;;;;8.82;1.40;;;12.70;99.90;;;;;;5024127;28;20555;-75
2022/05/28 05:55:25;;;;;;;12.57;1.45;;;12.80;99.90;;;;;;5033699;28;20571;-75
2022/05/28 05:57:50;;;;;;;12.93;1.45;;;12.80;99.90;;;;;;5027143;28;20535;-77
2022/05/28 06:00:16;;;;;;;9.52;1.67;;;12.80;99.90;;;;;;5036887;28;20055;-75
2022/05/28 06:02:42;;;;;;;13.23;1.50;;;12.80;99.90;;;;;;5030637;28;20033;-75
2022/05/28 06:05:08;;;;;;;8.95;1.73;;;12.90;99.90;;;;;;5022823;28;20032;-75
2022/05/28 06:07:34;;;;;;;8.90;1.50;;;13.00;99.90;;;;;;5028483;28;20112;-75
2022/05/28 06:09:59;;;;;;;11.38;1.45;;;13.10;99.90;;;;;;5026529;28;20101;-76
2022/05/28 06:12:25;;;;;;;10.20;1.33;;;13.20;99.90;;;;;;5021619;28;20018;-75
2022/05/28 06:14:50;;;;;;;6.35;1.27;;;13.20;99.90;;;;;;5018468;28;20029;-73
2022/05/28 06:17:16;;;;;;;13.00;1.50;;;13.30;99.90;;;;;;5023457;28;20451;-74
2022/05/28 06:19:41;;;;;;;11.77;1.80;;;13.40;99.90;;;;;;5023700;28;20018;-73
2022/05/28 06:22:07;;;;;;;8.10;1.15;;;13.40;99.90;;;;;;5022157;28;20030;-74
2022/05/28 06:24:33;;;;;;;13.07;1.70;;;13.40;99.90;;;;;;5024400;28;20055;-76
2022/05/28 06:27:00;;;;;;;6.20;1.30;;;13.30;99.90;;;;;;5027619;28;20030;-76
2022/05/28 06:29:27;;;;;;;8.60;1.40;;;13.30;99.90;;;;;;5024931;28;20024;-77
2022/05/28 06:31:52;;;;;;;10.68;1.90;;;13.30;99.90;;;;;;5029444;28;20042;-76
2022/05/28 06:34:18;;;;;;;5.13;1.35;;;13.30;99.90;;;;;;5021581;28;20506;-76
2022/05/28 06:36:44;;;;;;;9.55;1.60;;;13.40;99.90;;;;;;5025012;28;20025;-75
2022/05/28 06:39:10;;;;;;;9.13;1.60;;;13.40;99.90;;;;;;5031261;28;20403;-75
2022/05/28 06:41:35;;;;;;;9.40;1.65;;;13.40;99.90;;;;;;5030476;28;20048;-76
2022/05/28 06:44:01;;;;;;;10.55;1.40;;;13.50;99.90;;;;;;5038041;28;20040;-75
2022/05/28 06:46:27;;;;;;;9.45;1.30;;;13.50;99.90;;;;;;5036445;28;20402;-75
2022/05/28 06:48:52;;;;;;;9.38;1.83;;;13.60;99.90;;;;;;5031401;28;20195;-75
2022/05/28 06:51:18;;;;;;;11.07;1.60;;;13.70;99.90;;;;;;5032358;28;20072;-74
2022/05/28 06:53:47;;;;;;;9.05;1.42;;;13.80;99.90;;;;;;5031523;28;20341;-76
2022/05/28 06:56:13;;;;;;;9.07;1.60;;;13.80;99.90;;;;;;5032269;28;20095;-76
2022/05/28 06:58:39;;;;;;;8.93;1.35;;;13.90;99.90;;;;;;5030386;28;20025;-76
2022/05/28 07:01:09;;;;;;;10.07;1.48;;;13.90;99.90;;;;;;5032142;28;20497;-75
2022/05/28 07:03:36;;;;;;;8.93;1.23;;;14.00;99.90;;;;;;5032311;28;20057;-75
2022/05/28 07:06:02;;;;;;;11.20;1.42;;;14.10;99.90;;;;;;5011646;28;20022;-76
2022/05/28 07:08:28;;;;;;;9.15;1.58;;;14.20;99.90;;;;;;5016936;28;20502;-78
2022/05/28 07:10:57;;;;;;;8.57;1.70;;;14.20;99.90;;;;;;5016683;28;20066;-76
2022/05/28 07:13:25;;;;;;;13.30;1.73;;;14.30;99.90;;;;;;5018618;28;20056;-75
2022/05/28 07:15:51;;;;;;;14.50;1.70;;;14.40;99.90;;;;;;5015224;28;20026;-75
2022/05/28 07:18:17;;;;;;;8.57;1.50;;;14.50;99.90;;;;;;5024447;28;20079;-76
2022/05/28 07:20:44;;;;;;;11.88;1.77;;;14.50;99.90;;;;;;5014035;28;20034;-75
2022/05/28 07:23:15;;;;;;;12.85;1.70;;;14.50;99.90;;;;;;5015453;28;20026;-71
2022/05/28 07:25:42;;;;;;;9.05;1.65;;;14.60;99.90;;;;;;5012228;28;20022;-73
2022/05/28 07:28:27;;;;;;;10.90;1.50;;;14.70;99.90;;;;;;5023430;28;20053;-73
2022/05/28 07:31:00;;;;;;;;;;;14.80;99.90;;;;;;5012552;28;20429;-73
2022/05/28 07:33:27;;;;;;;13.80;1.55;;;14.70;99.90;;;;;;5011881;28;20040;-73
2022/05/28 07:35:55;;;;;;;9.45;1.30;;;14.60;99.90;;;;;;5020381;28;20258;-74
2022/05/28 07:38:22;;;;;;;12.20;1.98;;;14.50;99.90;;;;;;5031882;28;20529;-74
2022/05/28 07:40:48;;;;;;;7.88;1.50;;;14.50;99.90;;;;;;5031630;28;20042;-74
2022/05/28 07:43:14;;;;;;;9.30;1.48;;;14.70;99.90;;;;;;5031902;28;20025;-74
2022/05/28 07:45:42;;;;;;;8.13;1.52;;;14.80;99.90;;;;;;5017605;28;20030;-73
2022/05/28 07:48:09;;;;;;;11.52;1.50;;;14.80;99.90;;;;;;5023015;28;20073;-74
2022/05/28 07:50:35;;;;;;;11.65;1.90;;;14.70;99.90;;;;;;5011589;28;20076;-73
2022/05/28 07:53:00;;;;;;;9.60;1.58;;;14.60;99.90;;;;;;5014116;28;20030;-72
2022/05/28 07:55:29;;;;;;;10.35;1.98;;;14.60;99.90;;;;;;5013022;28;20037;-71
2022/05/28 07:57:55;;;;;;;11.60;2.00;;;14.60;99.90;;;;;;5011220;28;20050;-73
2022/05/28 08:00:22;;;;;;;10.77;1.38;;;14.50;99.90;;;;;;5024573;28;20022;-72
2022/05/28 08:02:47;;;;;;;12.50;1.90;;;14.50;99.90;;;;;;5010586;28;20029;-72
2022/05/28 08:05:13;;;;;;;11.80;1.63;;;14.60;99.90;;;;;;5011117;28;20022;-73
2022/05/28 08:07:39;;;;;;;10.65;1.55;;;14.70;99.90;;;;;;5011031;28;20077;-74
2022/05/28 08:10:05;;;;;;;11.05;1.55;;;14.70;99.90;;;;;;5012577;28;20018;-73
2022/05/28 08:12:31;;;;;;;12.73;1.90;;;14.70;99.90;;;;;;5023313;28;20056;-73
2022/05/28 08:14:58;;;;;;;12.70;1.70;;;14.70;99.90;;;;;;5011519;28;20049;-72
2022/05/28 08:17:24;;;;;;;6.40;1.48;;;14.70;99.90;;;;;;5011277;28;20108;-73
2022/05/28 08:19:51;;;;;;;9.60;1.50;;;14.90;99.90;;;;;;5010797;28;20034;-73
2022/05/28 08:25:01;;;;;;;11.75;1.73;;;15.20;99.90;;;;;;5011017;28;20084;-74
2022/05/28 08:27:26;;;;;;;13.95;1.75;;;15.40;99.90;;;;;;5016564;28;20448;-74
2022/05/28 08:29:52;;;;;;;10.80;2.05;;;15.40;99.90;;;;;;5010721;28;20025;-73
2022/05/28 08:32:18;;;;;;;15.75;2.03;;;15.50;99.40;;;;;;5010664;28;20077;-74
2022/05/28 08:34:44;;;;;;;11.32;1.75;;;15.60;99.90;;;;;;5024582;28;20040;-73
2022/05/28 08:37:11;;;;;;;12.10;2.10;;;15.70;98.90;;;;;;5012198;28;20010;-73
2022/05/28 08:39:37;;;;;;;10.00;1.50;;;15.80;99.60;;;;;;5022864;28;20022;-74
2022/05/28 08:42:03;;;;;;;13.00;1.90;;;16.00;99.20;;;;;;5011744;28;20482;-73
2022/05/28 08:44:37;;;;;;;11.02;1.90;;;16.10;99.20;;;;;;5019086;28;20036;-73
2022/05/28 08:47:14;;;;;;;13.65;1.90;;;16.00;99.10;;;;;;5027168;28;20048;-73
2022/05/28 08:49:39;;;;;;;10.32;1.73;;;16.00;98.60;;;;;;5023589;28;20389;-73
2022/05/28 08:52:11;;;;;;;15.13;2.13;;;15.80;99.20;;;;;;5018850;28;20018;-72
2022/05/28 08:54:56;;;;;;;13.88;2.15;;;15.80;99.90;;;;;;5028640;28;20018;-73
2022/05/28 08:57:39;;;;;;;12.60;1.92;;;15.70;99.90;;;;;;5026333;28;20021;-73
2022/05/28 09:00:17;;;;;;;14.13;2.00;;;15.70;99.90;;;;;;5030223;28;20046;-72
2022/05/28 09:02:50;;;;;;;11.18;1.77;;;15.90;99.90;;;;;;5024283;28;20434;-73
2022/05/28 09:05:30;;;;;;;12.38;1.88;;;16.00;99.90;;;;;;5027505;28;20056;-73
2022/05/28 09:08:01;;;;;;;10.65;1.75;;;15.80;99.90;;;;;;5029113;28;20053;-73
2022/05/28 09:10:46;;;;;;;11.27;1.98;;;15.70;99.90;;;;;;5027011;28;20041;-73
2022/05/28 09:13:39;;;;;;;12.10;1.85;;;15.60;99.90;;;;;;5025190;28;20082;-73
2022/05/28 09:16:07;;;;;;;11.05;2.35;;;15.50;99.90;;;;;;5026549;28;20029;-72
2022/05/28 09:18:36;;;;;;;17.15;2.22;;;15.40;99.90;;;;;;5029946;28;20354;-73
2022/05/28 09:21:03;;;;;;;10.43;1.73;;;15.50;99.90;;;;;;5029454;28;20029;-73
2022/05/28 09:23:38;;;;;;;14.45;2.20;;;15.70;99.90;;;;;;5026773;28;20520;-78
2022/05/28 09:26:06;;;;;;;11.43;1.98;;;15.90;99.90;;;;;;5046537;28;20037;-82
2022/05/28 09:28:46;;;;;;;13.82;1.92;;;16.10;99.80;;;;;;5027791;28;20025;-80
2022/05/28 09:31:21;;;;;;;9.70;1.63;;;16.10;99.80;;;;;;5033208;28;20024;-78
2022/05/28 09:34:11;;;;;;;11.55;1.77;;;16.00;96.70;;;;;;5028348;28;20058;-77
2022/05/28 09:37:25;;;;;;;6.85;1.48;;;16.00;96.70;;;;;;5030234;28;20087;-76
2022/05/28 09:39:59;;;;;;;8.68;1.63;;;16.20;94.90;;;;;;5007577;28;20038;-75
2022/05/28 09:42:43;;;;;;;12.65;1.65;;;16.60;94.20;;;;;;5007901;28;20049;-73
2022/05/28 09:45:31;;;;;;;10.40;1.70;;;16.70;92.60;;;;;;5007570;28;20061;-74
2022/05/28 09:47:57;;;;;;;13.48;2.10;;;16.50;92.40;;;;;;4998623;28;20037;-73
2022/05/28 09:50:37;;;;;;;14.00;3.15;;;16.40;93.30;;;;;;5007451;28;21052;-73
2022/05/28 09:56:23;;;;;;;10.85;1.77;;;16.50;92.60;;;;;;5007884;28;20409;-74
2022/05/28 09:58:49;;;;;;;11.38;1.90;;;16.30;91.00;;;;;;5004463;28;20076;-80
2022/05/28 10:01:21;;;;;;;10.73;1.70;;;16.20;92.50;;;;;;5011041;28;20038;-79
2022/05/28 10:06:34;;;;;;;10.70;1.83;;;16.50;91.30;;;;;;5012905;28;20156;-74
2022/05/28 10:09:21;;;;;;;9.85;1.42;;;16.60;90.40;;;;;;5011272;28;20038;-74
2022/05/28 10:12:14;;;;;;;10.48;1.52;;;16.60;89.10;;;;;;5022334;28;20038;-75
2022/05/28 10:14:40;;;;;;;7.82;1.60;;;16.80;87.60;;;;;;5027713;28;20044;-74
2022/05/28 10:17:06;;;;;;;10.57;1.60;;;16.70;85.70;;;;;;5020615;28;20018;-76
2022/05/28 10:19:42;;;;;;;9.82;1.90;;;16.80;87.30;;;;;;5025683;28;20025;-75
2022/05/28 10:22:27;;;;;;;9.73;1.52;;;16.90;88.90;;;;;;5030596;28;20036;-75
2022/05/28 10:25:08;;;;;;;9.55;1.80;;;16.80;85.10;;;;;;5022882;28;20044;-75
2022/05/28 10:27:35;;;;;;;10.02;1.77;;;16.90;85.30;;;;;;5024012;28;20535;-75
2022/05/28 10:30:07;;;;;;;7.45;1.20;;;17.00;84.40;;;;;;5013950;28;20025;-77
2022/05/28 10:32:40;;;;;;;8.43;1.48;;;17.00;78.80;;;;;;5012786;28;20068;-76
2022/05/28 10:35:11;;;;;;;4.60;1.30;;;17.00;79.30;;;;;;5030647;28;20053;-75
2022/05/28 10:37:37;;;;;;;6.35;1.30;;;17.20;77.30;;;;;;5033389;28;20014;-77
2022/05/28 10:40:11;;;;;;;7.47;1.50;;;17.30;76.10;;;;;;5033170;28;20022;-77
2022/05/28 10:42:37;;;;;;;12.63;1.50;;;17.30;75.70;;;;;;5033050;28;20071;-78
2022/05/28 10:45:04;;;;;;;14.85;2.10;;;17.10;78.00;;;;;;5033368;28;20063;-76
2022/05/28 10:48:16;;;;;;;11.75;1.77;;;16.90;81.30;;;;;;5032941;28;20033;-73
2022/05/28 10:51:15;;;;;;;10.00;1.55;;;17.00;80.10;;;;;;5010406;28;20036;-72
2022/05/28 10:54:12;;;;;;;8.85;1.52;;;17.10;78.70;;;;;;4977876;28;20026;-72
2022/05/28 10:57:04;;;;;;;9.55;1.40;;;17.00;77.60;;;;;;5009949;28;20258;-74
2022/05/28 10:59:48;;;;;;;8.05;1.40;;;17.30;77.90;;;;;;5009892;28;20501;-73
2022/05/28 11:02:16;;;;;;;9.38;1.52;;;17.50;77.00;;;;;;5009845;28;20073;-73
2022/05/28 11:05:26;;;;;;;7.90;1.35;;;17.40;75.40;;;;;;4993516;28;20533;-72
2022/05/28 11:08:27;;;;;;;7.28;1.50;;;17.50;74.70;;;;;;4972808;28;20038;-71
2022/05/28 11:10:53;;;;;;;4.18;1.15;;;17.30;73.70;;;;;;4978547;28;20036;-73
2022/05/28 11:13:36;;;;;;;9.82;1.67;;;17.40;73.50;;;;;;5010005;28;20445;-73
2022/05/28 11:16:18;;;;;;;7.47;1.50;;;17.30;71.10;;;;;;5010001;28;20037;-73
2022/05/28 11:18:52;;;;;;;10.27;2.00;;;17.10;72.70;;;;;;5009983;28;20030;-72
2022/05/28 11:21:20;;;;;;;7.32;1.63;;;16.90;72.90;;;;;;5016304;28;20033;-72
2022/05/28 11:23:58;;;;;;;7.57;1.75;;;16.80;74.50;;;;;;5032047;28;20426;-72
2022/05/28 11:26:37;;;;;;;9.20;1.58;;;16.80;75.60;;;;;;5030834;28;20025;-73
2022/05/28 11:29:34;;;;;;;12.68;1.77;;;17.00;74.80;;;;;;5032116;28;20430;-72
2022/05/28 11:32:05;;;;;;;8.80;1.65;;;17.20;74.90;;;;;;5021407;28;20424;-72
2022/05/28 11:34:40;;;;;;;11.55;2.08;;;17.40;75.20;;;;;;5031894;28;20037;-71
2022/05/28 11:37:17;;;;;;;10.25;1.70;;;17.30;76.80;;;;;;5032106;28;20021;-72
2022/05/28 11:40:00;;;;;;;9.45;1.67;;;17.40;76.60;;;;;;5031775;28;20484;-71
2022/05/28 11:42:37;;;;;;;10.50;1.67;;;17.50;76.80;;;;;;5019517;28;20025;-71
2022/05/28 11:45:17;;;;;;;9.02;1.75;;;17.70;77.10;;;;;;5030633;28;20362;-72
2022/05/28 11:47:56;;;;;;;9.77;1.60;;;17.70;76.40;;;;;;5031828;28;20018;-72
2022/05/28 11:53:42;;;;;;;10.13;1.92;;;17.80;76.80;;;;;;5031593;28;20109;-72
2022/05/28 11:56:22;;;;;;;7.10;1.50;;;17.90;76.10;;;;;;5031692;28;20481;-73
2022/05/28 11:58:52;;;;;;;9.25;2.15;;;17.90;75.30;;;;;;5031426;28;20029;-72
2022/05/28 12:01:24;;;;;;;10.13;1.67;;;17.80;75.40;;;;;;5031493;28;20032;-73
2022/05/28 12:03:52;;;;;;;7.30;1.77;;;17.70;73.70;;;;;;5031139;28;20033;-71
2022/05/28 12:06:22;;;;;;;10.43;1.80;;;17.40;73.60;;;;;;5031338;28;20036;-73
2022/05/28 12:09:16;;;;;;;10.35;2.05;;;17.20;75.90;;;;;;5031028;28;20039;-72
2022/05/28 12:11:49;;;;;;;13.63;2.17;;;17.10;75.10;;;;;;5031260;28;20025;-73
2022/05/28 12:14:26;;;;;;;7.65;1.90;;;17.10;76.00;;;;;;5031658;28;20358;-72
2022/05/28 12:17:18;;;;;;;5.85;1.40;;;17.20;75.60;;;;;;5032601;28;20030;-73
2022/05/28 12:19:53;;;;;;;6.90;1.50;;;17.00;73.30;;;;;;5032600;28;20079;-73
2022/05/28 12:22:32;;;;;;;10.23;1.75;;;17.00;74.70;;;;;;5030466;28;20565;-73
2022/05/28 12:25:13;;;;;;;11.68;1.90;;;17.20;74.80;;;;;;5020513;28;20037;-73
2022/05/28 12:27:54;;;;;;;10.18;1.98;;;17.10;75.40;;;;;;5032217;28;20479;-72
2022/05/28 12:30:37;;;;;;;11.27;2.03;;;17.10;75.80;;;;;;5033437;28;20028;-73
2022/05/28 12:33:03;;;;;;;11.57;1.65;;;17.20;76.90;;;;;;5032762;28;20045;-72
2022/05/28 12:35:48;;;;;;;10.43;1.98;;;17.40;76.60;;;;;;5018834;28;20017;-71
2022/05/28 12:38:23;;;;;;;9.55;1.80;;;17.20;75.70;;;;;;5033091;28;20355;-71
2022/05/28 12:40:57;;;;;;;9.27;1.88;;;17.30;75.80;;;;;;5032496;28;20029;-72
2022/05/28 12:43:32;;;;;;;9.05;1.75;;;17.20;76.60;;;;;;5033146;28;20117;-72
2022/05/28 12:46:12;;;;;;;8.00;1.73;;;17.30;74.30;;;;;;5031490;28;20037;-71
2022/05/28 12:48:39;;;;;;;7.43;1.20;;;17.40;74.30;;;;;;5032747;28;20063;-72
2022/05/28 12:51:28;;;;;;;8.80;1.63;;;17.40;71.10;;;;;;5033033;28;20033;-73
2022/05/28 12:54:03;;;;;;;8.40;1.63;;;17.30;70.90;;;;;;5032582;28;20026;-72
2022/05/28 12:56:34;;;;;;;6.78;1.50;;;17.30;70.40;;;;;;5032799;28;20032;-72
2022/05/28 12:59:21;;;;;;;7.43;1.27;;;17.30;71.20;;;;;;5031600;28;20385;-72
2022/05/28 13:02:00;;;;;;;7.20;1.38;;;17.60;70.90;;;;;;5032749;28;20035;-72
2022/05/28 13:04:30;;;;;;;4.63;1.20;;;17.80;70.50;;;;;;5031809;28;20040;-72
2022/05/28 13:07:00;;;;;;;5.32;1.33;;;18.00;70.30;;;;;;5030674;28;20033;-72
2022/05/28 13:09:29;;;;;;;8.40;1.83;;;18.20;70.10;;;;;;5030157;28;20559;-72